Time;durP1;ratioP1;P1;durP2;ratioP2;P2;SDS_P1;SDS_P2;PMS_P1;PMS_P2;Temp;Humidity;BMP_temperature;BMP_pressure;BME280_temperature;BME280_humidity;BME280_pressure;Samples;Min_cycle;Max_cycle;Signal;HPM_P1;HPM_P2
2024/03/21 00:02:23;;;;;;;14.02;8.85;;;;;;;;;;7553120;19;20022;-74
2024/03/21 00:04:55;;;;;;;15.30;8.35;;;;;;;;;;7548701;19;20398;-74
2024/03/21 00:07:26;;;;;;;16.67;8.45;;;;;;;;;;7558075;19;20035;-74
2024/03/21 00:09:58;;;;;;;14.60;8.82;;;;;;;;;;7534247;19;20024;-73
2024/03/21 00:12:30;;;;;;;17.58;8.60;;;;;;;;;;7548365;19;20033;-74
2024/03/21 00:15:01;;;;;;;13.65;8.07;;;;;;;;;;7550970;19;25899;-73
2024/03/21 00:17:33;;;;;;;17.23;8.50;;;;;;;;;;7540917;19;20456;-73
2024/03/21 00:20:10;;;;;;;15.30;8.38;;;;;;;;;;7538379;19;21155;-74
2024/03/21 00:22:42;;;;;;;14.52;7.68;;;;;;;;;;7548903;19;20502;-74
2024/03/21 00:25:16;;;;;;;11.35;8.35;;;;;;;;;;7553326;19;21440;-74
2024/03/21 00:27:50;;;;;;;12.55;8.23;;;;;;;;;;7567971;19;20011;-73
2024/03/21 00:30:21;;;;;;;;;;;;;;;;;;7584386;19;20112;-73
2024/03/21 00:32:53;;;;;;;17.13;10.05;;;;;;;;;;7577573;19;19926;-74
2024/03/21 00:35:25;;;;;;;13.15;7.93;;;;;;;;;;7576906;19;20037;-73
2024/03/21 00:38:00;;;;;;;13.70;8.70;;;;;;;;;;7573570;19;20022;-73
2024/03/21 00:40:31;;;;;;;15.82;9.27;;;;;;;;;;7578243;19;20018;-73
2024/03/21 00:43:03;;;;;;;13.35;8.90;;;;;;;;;;7562303;19;20026;-75
2024/03/21 00:45:35;;;;;;;13.63;8.73;;;;;;;;;;7572026;19;20019;-73
2024/03/21 00:48:06;;;;;;;12.23;8.10;;;;;;;;;;7576740;19;20015;-74
2024/03/21 00:50:38;;;;;;;13.52;8.77;;;;;;;;;;7573699;19;20752;-76
2024/03/21 00:53:09;;;;;;;12.65;8.13;;;;;;;;;;7580762;19;20019;-73
2024/03/21 00:55:41;;;;;;;13.20;8.70;;;;;;;;;;7571648;19;20052;-73
2024/03/21 00:58:12;;;;;;;11.90;7.97;;;;;;;;;;7561736;19;20835;-73
2024/03/21 01:00:44;;;;;;;15.40;9.10;;;;;;;;;;7582159;19;20015;-73
2024/03/21 01:03:16;;;;;;;13.55;8.15;;;;;;;;;;7558682;19;20014;-73
2024/03/21 01:05:51;;;;;;;14.93;8.25;;;;;;;;;;7574710;19;20025;-73
2024/03/21 01:08:23;;;;;;;14.77;8.63;;;;;;;;;;7561549;19;20023;-73
2024/03/21 01:10:55;;;;;;;11.65;7.85;;;;;;;;;;7549404;19;20033;-74
2024/03/21 01:13:26;;;;;;;14.25;8.73;;;;;;;;;;7538270;19;20030;-73
2024/03/21 01:15:58;;;;;;;11.38;7.07;;;;;;;;;;7575371;19;20998;-73
2024/03/21 01:18:35;;;;;;;10.52;7.43;;;;;;;;;;7576492;19;20404;-73
2024/03/21 01:21:08;;;;;;;13.05;7.38;;;;;;;;;;7567847;19;20021;-72
2024/03/21 01:23:40;;;;;;;14.52;7.88;;;;;;;;;;7575358;19;20019;-73
2024/03/21 01:26:11;;;;;;;12.10;8.13;;;;;;;;;;7583602;19;20099;-73
2024/03/21 01:28:43;;;;;;;11.88;7.80;;;;;;;;;;7571912;19;20018;-73
2024/03/21 01:31:15;;;;;;;12.18;7.50;;;;;;;;;;7571292;19;20022;-73
2024/03/21 01:33:47;;;;;;;11.60;7.10;;;;;;;;;;7577417;19;20545;-72
2024/03/21 01:36:19;;;;;;;15.93;7.47;;;;;;;;;;7570454;19;20014;-73
2024/03/21 01:38:51;;;;;;;15.10;7.45;;;;;;;;;;7563034;19;20638;-73
2024/03/21 01:41:23;;;;;;;13.45;6.93;;;;;;;;;;7602127;19;20581;-73
2024/03/21 01:43:54;;;;;;;11.23;7.03;;;;;;;;;;7600315;19;20014;-74
2024/03/21 01:46:26;;;;;;;11.80;7.07;;;;;;;;;;7586528;19;20022;-73
2024/03/21 01:48:58;;;;;;;10.90;6.28;;;;;;;;;;7595916;19;20436;-74
2024/03/21 01:51:29;;;;;;;10.70;6.45;;;;;;;;;;7585121;19;20086;-74
2024/03/21 01:54:02;;;;;;;11.48;5.90;;;;;;;;;;7575579;19;20384;-73
2024/03/21 01:56:37;;;;;;;11.55;6.32;;;;;;;;;;7585658;19;20023;-74
2024/03/21 01:59:08;;;;;;;10.68;5.70;;;;;;;;;;7574729;19;21169;-73
2024/03/21 02:01:40;;;;;;;9.38;5.25;;;;;;;;;;7561193;19;20512;-74
2024/03/21 02:04:11;;;;;;;8.32;5.90;;;;;;;;;;7562401;19;20023;-73
2024/03/21 02:06:43;;;;;;;9.88;5.40;;;;;;;;;;7578185;19;20018;-73
2024/03/21 02:09:21;;;;;;;10.93;5.85;;;;;;;;;;7569060;19;20033;-73
2024/03/21 02:11:52;;;;;;;13.77;5.97;;;;;;;;;;7597712;19;22188;-73
2024/03/21 02:14:28;;;;;;;8.07;5.20;;;;;;;;;;7592484;19;20035;-73
2024/03/21 02:17:00;;;;;;;6.65;4.88;;;;;;;;;;7601931;19;20496;-73
2024/03/21 02:19:32;;;;;;;8.25;5.20;;;;;;;;;;7593707;19;20020;-73
2024/03/21 02:24:54;;;;;;;10.27;5.53;;;;;;;;;;7569119;19;20494;-73
2024/03/21 02:27:25;;;;;;;11.85;5.88;;;;;;;;;;7556221;19;20022;-72
2024/03/21 02:29:57;;;;;;;9.13;5.20;;;;;;;;;;7572300;19;20026;-73
2024/03/21 02:32:28;;;;;;;7.25;5.30;;;;;;;;;;7560116;19;20052;-71
2024/03/21 02:35:01;;;;;;;8.65;5.32;;;;;;;;;;7569614;19;20022;-73
2024/03/21 02:37:32;;;;;;;10.93;5.78;;;;;;;;;;7570039;19;20011;-73
2024/03/21 02:40:04;;;;;;;11.07;6.63;;;;;;;;;;7561499;19;20128;-73
2024/03/21 02:42:36;;;;;;;7.82;5.43;;;;;;;;;;7581397;19;20582;-72
2024/03/21 02:45:08;;;;;;;10.95;5.88;;;;;;;;;;7580368;19;20010;-73
2024/03/21 02:47:39;;;;;;;8.82;5.32;;;;;;;;;;7578868;19;20019;-73
2024/03/21 02:50:11;;;;;;;11.43;5.97;;;;;;;;;;7560355;19;20018;-73
2024/03/21 02:52:42;;;;;;;9.02;5.50;;;;;;;;;;7576925;19;20022;-74
2024/03/21 02:55:15;;;;;;;10.25;6.32;;;;;;;;;;7580387;19;20357;-75
2024/03/21 02:57:46;;;;;;;9.53;5.80;;;;;;;;;;7601105;19;20011;-72
2024/03/21 03:00:18;;;;;;;9.15;5.47;;;;;;;;;;7583055;19;20026;-75
2024/03/21 03:02:50;;;;;;;11.23;5.35;;;;;;;;;;7596115;19;20989;-72
2024/03/21 03:05:21;;;;;;;8.30;5.45;;;;;;;;;;7589695;19;20038;-75
2024/03/21 03:07:53;;;;;;;7.97;4.63;;;;;;;;;;7601193;19;20678;-75
2024/03/21 03:10:24;;;;;;;6.15;4.18;;;;;;;;;;7592267;19;20034;-74
2024/03/21 03:12:56;;;;;;;9.05;4.75;;;;;;;;;;7593464;19;20025;-74
2024/03/21 03:15:27;;;;;;;7.15;4.25;;;;;;;;;;7583786;19;20927;-75
2024/03/21 03:17:59;;;;;;;7.30;4.40;;;;;;;;;;7557757;19;20045;-74
2024/03/21 03:20:31;;;;;;;5.82;4.15;;;;;;;;;;7550991;19;20019;-73
2024/03/21 03:23:03;;;;;;;6.97;3.95;;;;;;;;;;7571004;19;20024;-73
2024/03/21 03:25:35;;;;;;;7.78;4.53;;;;;;;;;;7565349;19;20022;-73
2024/03/21 03:28:06;;;;;;;7.20;4.38;;;;;;;;;;7584568;19;20010;-74
2024/03/21 03:30:37;;;;;;;13.15;5.18;;;;;;;;;;7578643;19;20022;-73
2024/03/21 03:35:59;;;;;;;8.15;4.07;;;;;;;;;;7564282;19;20121;-73
2024/03/21 03:38:31;;;;;;;7.32;4.07;;;;;;;;;;7570097;19;20018;-73
2024/03/21 03:41:02;;;;;;;6.15;3.80;;;;;;;;;;7526525;19;20018;-73
2024/03/21 03:43:34;;;;;;;5.63;4.05;;;;;;;;;;7528335;19;20019;-73
2024/03/21 03:46:05;;;;;;;10.85;3.90;;;;;;;;;;7559873;19;20027;-73
2024/03/21 03:48:37;;;;;;;6.00;3.78;;;;;;;;;;7550785;19;20030;-72
2024/03/21 03:51:09;;;;;;;5.93;3.63;;;;;;;;;;7555212;19;20588;-73
2024/03/21 03:53:40;;;;;;;5.68;3.83;;;;;;;;;;7553204;19;20026;-74
2024/03/21 03:56:12;;;;;;;7.13;4.45;;;;;;;;;;7573703;19;20397;-74
2024/03/21 03:58:43;;;;;;;6.57;4.10;;;;;;;;;;7556488;19;20003;-73
2024/03/21 04:01:15;;;;;;;9.07;3.60;;;;;;;;;;7548171;19;20019;-73
2024/03/21 04:03:46;;;;;;;9.57;3.50;;;;;;;;;;7546418;19;20039;-73
2024/03/21 04:06:18;;;;;;;5.32;3.92;;;;;;;;;;7576629;19;20029;-73
2024/03/21 04:08:49;;;;;;;11.15;4.57;;;;;;;;;;7574852;19;20018;-73
2024/03/21 04:11:21;;;;;;;7.07;4.47;;;;;;;;;;7571261;19;20010;-73
2024/03/21 04:13:52;;;;;;;9.23;3.47;;;;;;;;;;7577793;19;20018;-73
2024/03/21 04:16:24;;;;;;;7.10;3.53;;;;;;;;;;7571546;19;20093;-73
2024/03/21 04:18:55;;;;;;;8.45;4.07;;;;;;;;;;7580679;19;20014;-73
2024/03/21 04:21:27;;;;;;;10.50;3.97;;;;;;;;;;7551038;19;20170;-73
2024/03/21 04:23:59;;;;;;;8.48;4.43;;;;;;;;;;7564849;19;20019;-73
2024/03/21 04:26:30;;;;;;;6.32;4.00;;;;;;;;;;7600841;19;20015;-73
2024/03/21 04:29:03;;;;;;;6.20;3.50;;;;;;;;;;7563503;19;20014;-73
2024/03/21 04:31:35;;;;;;;6.68;3.63;;;;;;;;;;7568253;19;20403;-73
2024/03/21 04:34:08;;;;;;;10.77;4.28;;;;;;;;;;7555931;19;20152;-73
2024/03/21 04:36:40;;;;;;;6.60;3.70;;;;;;;;;;7567093;19;20890;-73
2024/03/21 04:39:11;;;;;;;5.38;3.58;;;;;;;;;;7572075;19;20025;-73
2024/03/21 04:41:43;;;;;;;9.30;3.60;;;;;;;;;;7571898;19;20027;-73
2024/03/21 04:44:15;;;;;;;4.75;3.47;;;;;;;;;;7554005;19;20025;-73
2024/03/21 04:46:46;;;;;;;4.95;3.30;;;;;;;;;;7563378;19;20131;-73
2024/03/21 04:49:18;;;;;;;5.50;3.40;;;;;;;;;;7573349;19;20018;-74
2024/03/21 04:51:49;;;;;;;9.93;3.72;;;;;;;;;;7557836;19;20613;-73
2024/03/21 04:54:21;;;;;;;5.43;3.65;;;;;;;;;;7568297;19;20014;-73
2024/03/21 04:56:52;;;;;;;7.35;3.90;;;;;;;;;;7587386;19;20018;-73
2024/03/21 04:59:25;;;;;;;7.38;3.75;;;;;;;;;;7547976;19;20022;-73
2024/03/21 05:01:57;;;;;;;7.38;3.75;;;;;;;;;;7559542;19;20014;-73
2024/03/21 05:04:28;;;;;;;6.95;3.58;;;;;;;;;;7557462;19;20023;-73
2024/03/21 05:07:00;;;;;;;5.90;3.80;;;;;;;;;;7564792;19;20024;-73
2024/03/21 05:09:32;;;;;;;4.75;3.30;;;;;;;;;;7552174;19;20023;-73
2024/03/21 05:12:03;;;;;;;5.68;3.50;;;;;;;;;;7560238;19;20036;-73
2024/03/21 05:14:35;;;;;;;6.90;3.78;;;;;;;;;;7582207;19;20115;-73
2024/03/21 05:17:09;;;;;;;5.88;3.75;;;;;;;;;;7564858;19;20044;-73
2024/03/21 05:19:41;;;;;;;7.53;3.38;;;;;;;;;;7568566;19;20035;-73
2024/03/21 05:22:12;;;;;;;5.38;3.67;;;;;;;;;;7574013;19;20024;-73
2024/03/21 05:24:44;;;;;;;7.75;3.38;;;;;;;;;;7548002;19;20037;-74
2024/03/21 05:27:19;;;;;;;9.27;3.75;;;;;;;;;;7578072;19;20025;-73
2024/03/21 05:29:51;;;;;;;7.47;3.55;;;;;;;;;;7595071;19;20853;-73
2024/03/21 05:32:22;;;;;;;7.80;2.88;;;;;;;;;;7581118;19;20018;-73
2024/03/21 05:34:54;;;;;;;5.65;3.10;;;;;;;;;;7585426;19;20019;-73
2024/03/21 05:37:25;;;;;;;8.93;3.13;;;;;;;;;;7589954;19;20685;-73
2024/03/21 05:39:58;;;;;;;5.40;3.53;;;;;;;;;;7592768;19;20030;-73
2024/03/21 05:42:30;;;;;;;5.47;2.97;;;;;;;;;;7585661;19;21816;-74
2024/03/21 05:45:01;;;;;;;6.70;3.10;;;;;;;;;;7553999;19;20015;-73
2024/03/21 05:47:34;;;;;;;6.60;3.50;;;;;;;;;;7540767;19;20022;-76
2024/03/21 05:50:06;;;;;;;5.95;3.60;;;;;;;;;;7554359;19;20508;-74
2024/03/21 05:52:39;;;;;;;7.15;3.75;;;;;;;;;;7558880;19;20558;-73
2024/03/21 05:55:10;;;;;;;6.10;3.63;;;;;;;;;;7555405;19;20011;-75
2024/03/21 05:57:42;;;;;;;10.10;3.88;;;;;;;;;;7558700;19;20118;-75
2024/03/21 06:00:17;;;;;;;4.47;3.15;;;;;;;;;;7561715;19;20078;-75
2024/03/21 06:02:49;;;;;;;7.15;3.92;;;;;;;;;;7568309;19;20011;-74
2024/03/21 06:05:20;;;;;;;6.07;3.75;;;;;;;;;;7540496;19;20048;-74
2024/03/21 06:07:52;;;;;;;6.78;3.47;;;;;;;;;;7578190;19;20014;-73
2024/03/21 06:10:23;;;;;;;5.45;3.50;;;;;;;;;;7568542;19;20017;-74
2024/03/21 06:12:55;;;;;;;7.50;4.07;;;;;;;;;;7587709;19;20018;-73
2024/03/21 06:15:26;;;;;;;7.72;4.38;;;;;;;;;;7581991;19;20098;-73
2024/03/21 06:17:57;;;;;;;9.57;5.75;;;;;;;;;;7601010;19;20022;-74
2024/03/21 06:20:29;;;;;;;10.50;5.53;;;;;;;;;;7595001;19;20687;-74
2024/03/21 06:23:01;;;;;;;8.82;5.55;;;;;;;;;;7600366;19;20941;-73
2024/03/21 06:25:33;;;;;;;9.02;5.20;;;;;;;;;;7577165;19;20011;-72
2024/03/21 06:28:05;;;;;;;10.50;5.30;;;;;;;;;;7576637;19;20109;-73
2024/03/21 06:30:36;;;;;;;8.45;4.72;;;;;;;;;;7557082;19;21366;-72
2024/03/21 06:33:08;;;;;;;10.95;5.65;;;;;;;;;;7561073;19;20022;-72
2024/03/21 06:35:41;;;;;;;10.38;4.78;;;;;;;;;;7555002;19;20023;-72
2024/03/21 06:38:13;;;;;;;7.80;4.80;;;;;;;;;;7563914;19;20317;-73
2024/03/21 06:40:44;;;;;;;8.15;4.25;;;;;;;;;;7562401;19;20022;-72
2024/03/21 06:43:17;;;;;;;10.45;4.88;;;;;;;;;;7571456;19;20011;-74
2024/03/21 06:45:58;;;;;;;6.57;3.53;;;;;;;;;;7561610;19;20031;-73
2024/03/21 06:48:30;;;;;;;6.60;3.38;;;;;;;;;;7573721;19;20795;-71
2024/03/21 06:51:06;;;;;;;7.65;3.83;;;;;;;;;;7572803;19;20014;-74
2024/03/21 06:53:38;;;;;;;5.57;3.17;;;;;;;;;;7566592;19;20451;-72
2024/03/21 06:56:09;;;;;;;6.32;2.95;;;;;;;;;;7599341;19;20021;-72
2024/03/21 06:58:41;;;;;;;4.00;2.63;;;;;;;;;;7591433;19;20370;-72
2024/03/21 07:01:12;;;;;;;10.40;3.38;;;;;;;;;;7583375;19;20029;-72
2024/03/21 07:03:44;;;;;;;3.28;2.08;;;;;;;;;;7595013;19;20011;-72
2024/03/21 07:06:16;;;;;;;7.00;2.20;;;;;;;;;;7593536;19;20025;-74
2024/03/21 07:08:48;;;;;;;7.88;2.30;;;;;;;;;;7590534;19;20920;-72
2024/03/21 07:11:19;;;;;;;5.07;2.53;;;;;;;;;;7568897;19;20018;-74
2024/03/21 07:13:51;;;;;;;5.15;2.88;;;;;;;;;;7569523;19;20025;-71
2024/03/21 07:16:23;;;;;;;4.72;2.63;;;;;;;;;;7542105;19;20751;-72
2024/03/21 07:18:54;;;;;;;5.63;2.60;;;;;;;;;;7585367;19;20011;-71
2024/03/21 07:21:27;;;;;;;4.72;1.98;;;;;;;;;;7564952;19;20022;-72
2024/03/21 07:23:59;;;;;;;5.50;1.92;;;;;;;;;;7554263;19;20011;-72
2024/03/21 07:26:30;;;;;;;4.57;2.00;;;;;;;;;;7560911;19;20342;-72
2024/03/21 07:29:02;;;;;;;2.53;1.80;;;;;;;;;;7569767;19;20946;-73
2024/03/21 07:31:34;;;;;;;5.43;2.17;;;;;;;;;;7565874;19;20017;-73
2024/03/21 07:34:06;;;;;;;8.77;2.15;;;;;;;;;;7584174;19;20040;-73
2024/03/21 07:36:37;;;;;;;8.20;2.20;;;;;;;;;;7560924;19;20502;-73
2024/03/21 07:39:10;;;;;;;5.53;2.08;;;;;;;;;;7566870;19;20036;-74
2024/03/21 07:41:41;;;;;;;4.03;2.65;;;;;;;;;;7591647;19;20019;-73
2024/03/21 07:44:13;;;;;;;3.42;2.40;;;;;;;;;;7599303;19;20042;-72
2024/03/21 07:46:47;;;;;;;4.32;2.20;;;;;;;;;;7576293;19;20014;-72
2024/03/21 07:49:19;;;;;;;5.95;2.60;;;;;;;;;;7566079;19;20011;-72
2024/03/21 07:51:52;;;;;;;3.05;1.75;;;;;;;;;;7561254;19;20784;-72
2024/03/21 07:54:24;;;;;;;3.67;2.10;;;;;;;;;;7550199;19;20022;-73
2024/03/21 07:56:58;;;;;;;3.42;2.30;;;;;;;;;;7560396;19;20022;-72
2024/03/21 07:59:29;;;;;;;6.00;2.33;;;;;;;;;;7564192;19;20018;-71
2024/03/21 08:02:01;;;;;;;7.25;2.33;;;;;;;;;;7569528;19;20828;-72
2024/03/21 08:04:33;;;;;;;4.47;2.10;;;;;;;;;;7566058;19;20015;-72
2024/03/21 08:07:05;;;;;;;5.47;2.27;;;;;;;;;;7582013;19;20372;-72
2024/03/21 08:09:36;;;;;;;2.22;1.90;;;;;;;;;;7570313;19;20022;-71
2024/03/21 08:12:08;;;;;;;2.40;1.80;;;;;;;;;;7581255;19;20110;-71
2024/03/21 08:14:40;;;;;;;5.63;2.15;;;;;;;;;;7586506;19;20041;-72
2024/03/21 08:17:11;;;;;;;4.20;2.30;;;;;;;;;;7586358;19;20094;-71
2024/03/21 08:19:46;;;;;;;3.53;2.05;;;;;;;;;;7554785;19;20018;-71
2024/03/21 08:22:17;;;;;;;3.70;1.65;;;;;;;;;;7561547;19;20483;-71
2024/03/21 08:24:49;;;;;;;5.05;2.17;;;;;;;;;;7554579;19;20018;-72
2024/03/21 08:27:20;;;;;;;3.78;2.22;;;;;;;;;;7560365;19;20034;-71
2024/03/21 08:29:53;;;;;;;4.32;2.30;;;;;;;;;;7541199;19;20026;-72
2024/03/21 08:32:25;;;;;;;4.60;2.05;;;;;;;;;;7571727;19;20033;-71
2024/03/21 08:34:56;;;;;;;8.18;2.40;;;;;;;;;;7576139;19;20468;-72
2024/03/21 08:37:28;;;;;;;4.13;2.47;;;;;;;;;;7579745;19;20495;-72
2024/03/21 08:40:00;;;;;;;6.88;2.50;;;;;;;;;;7574290;19;20022;-71
2024/03/21 08:42:32;;;;;;;3.15;2.17;;;;;;;;;;7592064;19;20230;-72
2024/03/21 08:45:03;;;;;;;6.78;2.20;;;;;;;;;;7596486;19;20031;-72
2024/03/21 08:47:38;;;;;;;3.95;2.10;;;;;;;;;;7596753;19;20018;-72
2024/03/21 08:50:10;;;;;;;4.97;2.63;;;;;;;;;;7585640;19;20015;-72
2024/03/21 08:52:42;;;;;;;7.53;2.55;;;;;;;;;;7592727;19;20045;-72
2024/03/21 08:55:15;;;;;;;4.38;2.30;;;;;;;;;;7585438;19;20036;-72
2024/03/21 08:57:47;;;;;;;4.65;2.35;;;;;;;;;;7589057;19;22508;-73
2024/03/21 09:00:18;;;;;;;2.55;1.92;;;;;;;;;;7575267;19;20018;-72
2024/03/21 09:02:50;;;;;;;4.18;2.33;;;;;;;;;;7554892;19;20015;-72
2024/03/21 09:05:22;;;;;;;4.03;2.25;;;;;;;;;;7572659;19;20515;-72
2024/03/21 09:07:56;;;;;;;3.50;2.00;;;;;;;;;;7564686;19;20015;-72
2024/03/21 09:10:28;;;;;;;5.90;1.95;;;;;;;;;;7557302;19;20057;-72
2024/03/21 09:13:00;;;;;;;3.65;1.92;;;;;;;;;;7567208;19;20026;-72
2024/03/21 09:15:32;;;;;;;3.97;1.83;;;;;;;;;;7562241;19;20011;-72
2024/03/21 09:18:03;;;;;;;6.15;2.30;;;;;;;;;;7561841;19;20011;-72
2024/03/21 09:20:35;;;;;;;9.70;2.10;;;;;;;;;;7572430;19;20022;-73
2024/03/21 09:23:07;;;;;;;4.35;2.58;;;;;;;;;;7579532;19;20040;-71
2024/03/21 09:25:38;;;;;;;6.43;2.30;;;;;;;;;;7560384;19;20037;-71
2024/03/21 09:28:10;;;;;;;6.68;2.65;;;;;;;;;;7571893;19;20022;-73
2024/03/21 09:30:45;;;;;;;4.63;2.17;;;;;;;;;;7586192;19;20023;-74
2024/03/21 09:33:16;;;;;;;5.43;2.60;;;;;;;;;;7563776;19;20018;-72
2024/03/21 09:35:57;;;;;;;6.35;2.60;;;;;;;;;;7550357;19;20037;-71
2024/03/21 09:38:29;;;;;;;5.72;2.90;;;;;;;;;;7574258;19;20440;-71
2024/03/21 09:41:02;;;;;;;7.00;3.08;;;;;;;;;;7574664;19;20018;-71
2024/03/21 09:43:33;;;;;;;13.13;3.47;;;;;;;;;;7576966;19;20014;-71
2024/03/21 09:46:05;;;;;;;4.78;2.90;;;;;;;;;;7579119;19;20045;-73
2024/03/21 09:48:37;;;;;;;6.32;3.28;;;;;;;;;;7561457;19;20021;-71
2024/03/21 09:51:21;;;;;;;5.18;3.17;;;;;;;;;;7585401;19;20274;-73
2024/03/21 09:53:53;;;;;;;7.15;3.88;;;;;;;;;;7581913;19;20010;-73
2024/03/21 09:56:25;;;;;;;7.13;3.40;;;;;;;;;;7596826;19;20026;-72
2024/03/21 09:58:57;;;;;;;5.95;3.72;;;;;;;;;;7559507;19;20015;-70
2024/03/21 10:01:29;;;;;;;6.30;3.80;;;;;;;;;;7552729;19;20006;-73
2024/03/21 10:04:00;;;;;;;7.00;4.10;;;;;;;;;;7563452;19;20026;-71
2024/03/21 10:06:42;;;;;;;9.25;4.18;;;;;;;;;;7579417;19;20411;-73
2024/03/21 10:09:15;;;;;;;19.10;4.07;;;;;;;;;;7584073;19;20040;-73
2024/03/21 10:11:50;;;;;;;7.90;4.03;;;;;;;;;;7558609;19;20056;-73
2024/03/21 10:14:22;;;;;;;8.25;4.40;;;;;;;;;;7578675;19;20822;-73
2024/03/21 10:16:53;;;;;;;7.68;4.45;;;;;;;;;;7559031;19;20022;-73
2024/03/21 10:19:25;;;;;;;7.95;5.05;;;;;;;;;;7585301;19;20023;-72
2024/03/21 10:21:56;;;;;;;8.63;5.10;;;;;;;;;;7579073;19;20014;-72
2024/03/21 10:24:28;;;;;;;10.85;4.80;;;;;;;;;;7574632;19;20023;-72
2024/03/21 10:27:00;;;;;;;7.68;5.20;;;;;;;;;;7589798;19;20026;-72
2024/03/21 10:29:31;;;;;;;6.25;4.85;;;;;;;;;;7606186;19;20022;-72
2024/03/21 10:32:04;;;;;;;11.98;5.07;;;;;;;;;;7589804;19;20019;-71
2024/03/21 10:34:35;;;;;;;11.13;6.00;;;;;;;;;;7590754;19;20021;-72
2024/03/21 10:37:07;;;;;;;10.98;6.00;;;;;;;;;;7577337;19;21449;-71
2024/03/21 10:39:38;;;;;;;12.05;5.13;;;;;;;;;;7574187;19;20032;-72
2024/03/21 10:42:30;;;;;;;15.15;6.35;;;;;;;;;;7598730;19;20026;-71
2024/03/21 10:45:06;;;;;;;10.48;6.47;;;;;;;;;;7578353;19;20026;-72
2024/03/21 10:47:46;;;;;;;18.45;7.45;;;;;;;;;;7573067;19;20112;-72
2024/03/21 10:50:22;;;;;;;11.05;6.70;;;;;;;;;;7600953;19;20109;-72
2024/03/21 10:52:55;;;;;;;15.35;7.15;;;;;;;;;;7588467;19;20941;-72
2024/03/21 10:55:27;;;;;;;15.48;8.02;;;;;;;;;;7602476;19;20033;-73
2024/03/21 10:57:59;;;;;;;13.90;6.60;;;;;;;;;;7572827;19;20022;-72
2024/03/21 11:00:35;;;;;;;15.10;7.10;;;;;;;;;;7580742;19;20019;-72
2024/03/21 11:03:07;;;;;;;14.88;7.07;;;;;;;;;;7578457;19;20048;-72
2024/03/21 11:05:39;;;;;;;11.25;6.20;;;;;;;;;;7560733;19;20018;-71
2024/03/21 11:08:30;;;;;;;17.27;6.13;;;;;;;;;;7566488;19;20020;-71
2024/03/21 11:11:02;;;;;;;8.73;5.43;;;;;;;;;;7572127;19;20015;-71
2024/03/21 11:13:34;;;;;;;10.40;5.32;;;;;;;;;;7573116;19;20114;-72
2024/03/21 11:16:05;;;;;;;11.93;4.53;;;;;;;;;;7555418;19;20018;-72
2024/03/21 11:18:37;;;;;;;8.32;4.32;;;;;;;;;;7551742;19;20880;-73
2024/03/21 11:21:12;;;;;;;8.35;3.88;;;;;;;;;;7566740;19;20142;-73
2024/03/21 11:23:43;;;;;;;12.00;5.47;;;;;;;;;;7579839;19;20022;-71
2024/03/21 11:26:16;;;;;;;8.90;4.85;;;;;;;;;;7585952;19;20021;-71
2024/03/21 11:28:51;;;;;;;9.67;6.43;;;;;;;;;;7597234;19;20018;-72
2024/03/21 11:31:31;;;;;;;11.55;6.35;;;;;;;;;;7598452;19;20014;-72
2024/03/21 11:34:04;;;;;;;8.77;5.78;;;;;;;;;;7570742;19;20925;-71
2024/03/21 11:36:36;;;;;;;9.38;5.28;;;;;;;;;;7599231;19;20040;-71
2024/03/21 11:39:11;;;;;;;9.85;6.15;;;;;;;;;;7590100;19;20022;-72
2024/03/21 11:41:43;;;;;;;12.60;6.32;;;;;;;;;;7570742;19;20052;-71
2024/03/21 11:44:15;;;;;;;8.70;6.20;;;;;;;;;;7582453;19;20165;-71
2024/03/21 11:46:47;;;;;;;8.27;5.30;;;;;;;;;;7597301;19;20015;-73
2024/03/21 11:49:19;;;;;;;10.82;5.72;;;;;;;;;;7602978;19;20132;-73
2024/03/21 11:51:50;;;;;;;10.13;6.45;;;;;;;;;;7592120;19;20018;-71
2024/03/21 11:54:23;;;;;;;11.13;6.10;;;;;;;;;;7594604;19;20136;-72
2024/03/21 11:56:56;;;;;;;10.95;6.32;;;;;;;;;;7569113;19;20022;-71
2024/03/21 11:59:34;;;;;;;12.13;6.47;;;;;;;;;;7536077;19;20014;-71
2024/03/21 12:02:09;;;;;;;11.65;5.95;;;;;;;;;;7583484;19;20023;-72
2024/03/21 12:04:41;;;;;;;10.93;6.45;;;;;;;;;;7580146;19;20509;-72
2024/03/21 12:07:14;;;;;;;11.80;6.55;;;;;;;;;;7564783;19;20773;-72
2024/03/21 12:09:46;;;;;;;11.55;6.78;;;;;;;;;;7557868;19;20025;-71
2024/03/21 12:12:19;;;;;;;9.07;5.80;;;;;;;;;;7571480;19;20834;-71
2024/03/21 12:14:51;;;;;;;8.07;5.28;;;;;;;;;;7575652;19;20139;-72
2024/03/21 12:17:23;;;;;;;11.13;5.60;;;;;;;;;;7563932;19;20014;-71
2024/03/21 12:19:54;;;;;;;8.65;5.22;;;;;;;;;;7558556;19;21041;-72
2024/03/21 12:22:27;;;;;;;7.95;5.03;;;;;;;;;;7579855;19;20014;-72
2024/03/21 12:25:00;;;;;;;6.28;4.75;;;;;;;;;;7544485;19;20562;-71
2024/03/21 12:27:33;;;;;;;8.50;4.95;;;;;;;;;;7553879;19;20040;-71
2024/03/21 12:30:04;;;;;;;7.45;5.05;;;;;;;;;;7566207;19;20028;-71
2024/03/21 12:32:36;;;;;;;7.22;4.78;;;;;;;;;;7568066;19;20021;-71
2024/03/21 12:35:07;;;;;;;8.05;5.03;;;;;;;;;;7558003;19;20048;-71
2024/03/21 12:37:42;;;;;;;10.07;4.70;;;;;;;;;;7557346;19;20034;-71
2024/03/21 12:40:14;;;;;;;8.65;4.82;;;;;;;;;;7558327;19;20618;-72
2024/03/21 12:42:45;;;;;;;7.43;4.47;;;;;;;;;;7550221;19;21193;-72
2024/03/21 12:45:17;;;;;;;9.43;5.25;;;;;;;;;;7549468;19;20014;-72
2024/03/21 12:47:49;;;;;;;9.60;6.30;;;;;;;;;;7562946;19;20010;-71
2024/03/21 12:50:21;;;;;;;8.80;5.35;;;;;;;;;;7553431;19;21150;-71
2024/03/21 12:52:52;;;;;;;8.65;5.82;;;;;;;;;;7557442;19;20040;-72
2024/03/21 12:55:24;;;;;;;8.68;5.68;;;;;;;;;;7566139;19;20472;-71
2024/03/21 12:57:55;;;;;;;6.82;4.78;;;;;;;;;;7577363;19;21009;-71
2024/03/21 13:00:27;;;;;;;7.20;5.53;;;;;;;;;;7581021;19;20014;-72
2024/03/21 13:02:58;;;;;;;11.10;6.68;;;;;;;;;;7573114;19;20023;-71
2024/03/21 13:05:30;;;;;;;9.75;6.10;;;;;;;;;;7579912;19;20007;-71
2024/03/21 13:08:02;;;;;;;14.05;7.07;;;;;;;;;;7573974;19;20015;-72
2024/03/21 13:10:34;;;;;;;10.32;6.50;;;;;;;;;;7562791;19;20074;-72
2024/03/21 13:13:05;;;;;;;10.38;6.38;;;;;;;;;;7556628;19;20024;-73
2024/03/21 13:15:37;;;;;;;11.70;7.03;;;;;;;;;;7537190;19;20014;-73
2024/03/21 13:18:09;;;;;;;12.70;7.10;;;;;;;;;;7536346;19;20505;-73
2024/03/21 13:20:40;;;;;;;9.20;6.22;;;;;;;;;;7535392;19;20054;-72
2024/03/21 13:23:12;;;;;;;9.40;6.97;;;;;;;;;;7560351;19;20180;-73
2024/03/21 13:25:44;;;;;;;9.32;6.65;;;;;;;;;;7550232;19;20018;-73
2024/03/21 13:28:16;;;;;;;9.73;6.90;;;;;;;;;;7568901;19;20021;-73
2024/03/21 13:30:47;;;;;;;10.32;6.00;;;;;;;;;;7563943;19;20022;-73
2024/03/21 13:33:20;;;;;;;7.75;5.47;;;;;;;;;;7553812;19;20106;-73
2024/03/21 13:35:52;;;;;;;7.88;5.38;;;;;;;;;;7523315;19;20049;-73
2024/03/21 13:38:29;;;;;;;9.27;4.78;;;;;;;;;;7545831;19;20014;-73
2024/03/21 13:41:01;;;;;;;12.82;5.63;;;;;;;;;;7557203;19;20364;-74
2024/03/21 13:43:33;;;;;;;7.90;4.63;;;;;;;;;;7563742;19;20122;-74
2024/03/21 13:46:04;;;;;;;5.53;4.30;;;;;;;;;;7562534;19;20014;-73
2024/03/21 13:48:36;;;;;;;7.55;4.95;;;;;;;;;;7540789;19;20025;-73
2024/03/21 13:51:08;;;;;;;6.03;4.03;;;;;;;;;;7517294;19;20978;-73
2024/03/21 13:53:39;;;;;;;6.35;4.03;;;;;;;;;;7515870;19;20676;-74
2024/03/21 13:56:11;;;;;;;6.50;4.68;;;;;;;;;;7532818;19;20011;-71
2024/03/21 13:58:42;;;;;;;6.28;4.40;;;;;;;;;;7532647;19;20550;-72
2024/03/21 14:01:14;;;;;;;9.10;4.57;;;;;;;;;;7563101;19;22092;-72
2024/03/21 14:03:45;;;;;;;8.35;4.85;;;;;;;;;;7568833;19;20052;-71
2024/03/21 14:06:20;;;;;;;7.60;4.85;;;;;;;;;;7560192;19;20119;-71
2024/03/21 14:08:51;;;;;;;7.68;4.88;;;;;;;;;;7560708;19;20029;-71
2024/03/21 14:11:23;;;;;;;7.35;5.32;;;;;;;;;;7585415;19;20037;-71
2024/03/21 14:13:54;;;;;;;9.70;6.00;;;;;;;;;;7550620;19;20347;-73
2024/03/21 14:16:28;;;;;;;9.23;7.35;;;;;;;;;;7548410;19;20121;-73
2024/03/21 14:19:00;;;;;;;12.63;7.88;;;;;;;;;;7558338;19;20018;-73
2024/03/21 14:21:32;;;;;;;12.30;8.10;;;;;;;;;;7548277;19;20014;-73
2024/03/21 14:24:04;;;;;;;9.57;7.30;;;;;;;;;;7536067;19;20363;-73
2024/03/21 14:26:35;;;;;;;12.88;7.68;;;;;;;;;;7483643;19;20427;-73
2024/03/21 14:29:07;;;;;;;10.68;6.93;;;;;;;;;;7548287;19;21183;-73
2024/03/21 14:31:39;;;;;;;10.55;5.75;;;;;;;;;;7562905;19;20778;-72
2024/03/21 14:34:13;;;;;;;8.15;5.88;;;;;;;;;;7542725;19;20018;-73
2024/03/21 14:36:44;;;;;;;11.13;7.07;;;;;;;;;;7544984;19;20056;-72
2024/03/21 14:39:16;;;;;;;18.27;8.60;;;;;;;;;;7528206;19;20366;-72
2024/03/21 14:41:49;;;;;;;15.23;8.95;;;;;;;;;;7567243;19;20018;-72
2024/03/21 14:44:21;;;;;;;10.90;7.32;;;;;;;;;;7545950;19;20019;-72
2024/03/21 14:46:53;;;;;;;15.32;8.85;;;;;;;;;;7567979;19;20022;-71
2024/03/21 14:49:24;;;;;;;14.77;9.60;;;;;;;;;;7574199;19;20038;-72
2024/03/21 14:51:56;;;;;;;13.60;8.73;;;;;;;;;;7582748;19;20138;-72
2024/03/21 14:54:27;;;;;;;15.48;9.48;;;;;;;;;;7555830;19;20028;-72
2024/03/21 14:56:59;;;;;;;15.10;10.40;;;;;;;;;;7566096;19;21000;-73
2024/03/21 14:59:30;;;;;;;18.00;10.35;;;;;;;;;;7569011;19;20019;-72
2024/03/21 15:02:02;;;;;;;16.27;10.90;;;;;;;;;;7570634;19;20018;-72
2024/03/21 15:04:34;;;;;;;21.13;12.82;;;;;;;;;;7575010;19;20019;-72
2024/03/21 15:07:05;;;;;;;17.90;10.90;;;;;;;;;;7548808;19;20642;-72
2024/03/21 15:09:37;;;;;;;14.43;9.98;;;;;;;;;;7567945;19;20018;-72
2024/03/21 15:12:12;;;;;;;19.95;10.20;;;;;;;;;;7571099;19;20053;-71
2024/03/21 15:14:46;;;;;;;15.40;10.15;;;;;;;;;;7552400;19;20593;-71